createdAt,value
2018-07-23T00:01:11.084Z,75.05
2018-07-23T00:03:37.087Z,75.61
2018-07-23T00:06:03.112Z,76.08
2018-07-23T00:08:29.131Z,75.61
2018-07-23T00:10:55.179Z,76.79
2018-07-23T00:13:21.177Z,75.94
2018-07-23T00:15:47.187Z,77.48
2018-07-23T00:18:13.288Z,78.75
2018-07-23T00:20:39.287Z,79.01
2018-07-23T00:23:05.350Z,78.23
2018-07-23T00:25:31.370Z,75.83
2018-07-23T00:27:57.395Z,78.61
2018-07-23T00:30:23.414Z,76.24
2018-07-23T00:32:49.424Z,76.34
2018-07-23T00:35:15.435Z,76.47
2018-07-23T00:37:41.447Z,77.73
2018-07-23T00:40:07.478Z,76.95
2018-07-23T00:42:33.523Z,78.06
2018-07-23T00:44:59.554Z,78.47
2018-07-23T00:47:25.587Z,78.15
2018-07-23T00:49:51.590Z,78.39
2018-07-23T00:52:17.617Z,77.78
2018-07-23T00:54:43.617Z,77.09
2018-07-23T00:57:09.644Z,77.42
2018-07-23T00:59:35.663Z,78.34
2018-07-23T01:02:01.703Z,78.75
2018-07-23T01:04:27.861Z,80.05
2018-07-23T01:06:53.903Z,78.06
2018-07-23T01:09:19.941Z,78.37
2018-07-23T01:11:46.031Z,78.21
2018-07-23T01:14:12.063Z,78.54
2018-07-23T01:16:38.083Z,79.21
2018-07-23T01:19:04.119Z,78.85
2018-07-23T01:21:30.133Z,78.49
2018-07-23T01:23:56.172Z,77.53
2018-07-23T01:26:22.219Z,78.69
2018-07-23T01:28:48.264Z,77.65
2018-07-23T01:31:14.285Z,78.69
2018-07-23T01:33:40.295Z,78.53
2018-07-23T01:36:06.336Z,79.20
2018-07-23T01:38:32.338Z,78.66
2018-07-23T01:40:58.351Z,78.41
2018-07-23T01:43:24.343Z,78.00
2018-07-23T01:45:50.338Z,78.41
2018-07-23T01:48:16.350Z,79.94
2018-07-23T01:50:42.389Z,78.55
2018-07-23T01:53:08.385Z,79.61
2018-07-23T01:55:34.521Z,79.10
2018-07-23T01:58:00.513Z,79.20
2018-07-23T02:00:26.524Z,79.05
2018-07-23T02:02:52.562Z,78.74
2018-07-23T02:05:18.583Z,80.54
2018-07-23T02:07:44.590Z,79.01
2018-07-23T02:10:10.583Z,80.65
2018-07-23T02:12:36.591Z,79.33
2018-07-23T02:15:02.701Z,80.84
2018-07-23T02:17:28.718Z,79.83
2018-07-23T02:19:54.823Z,80.42
2018-07-23T02:22:20.838Z,79.89
2018-07-23T02:24:46.868Z,79.41
2018-07-23T02:27:12.898Z,79.00
2018-07-23T02:29:39.045Z,78.39
2018-07-23T02:32:05.082Z,78.80
2018-07-23T02:34:31.103Z,78.31
2018-07-23T02:36:57.109Z,78.40
2018-07-23T02:39:23.128Z,78.26
2018-07-23T02:41:49.146Z,76.83
2018-07-23T02:44:15.163Z,77.24
2018-07-23T02:46:41.198Z,78.05
2018-07-23T02:49:07.249Z,76.38
2018-07-23T02:51:33.285Z,76.25
2018-07-23T02:53:59.395Z,75.46
2018-07-23T02:56:25.440Z,75.70
2018-07-23T02:58:51.544Z,74.92
2018-07-23T03:01:17.559Z,76.78
2018-07-23T03:03:43.571Z,75.63
2018-07-23T03:06:09.601Z,75.82
2018-07-23T03:08:35.629Z,75.52
2018-07-23T03:11:01.639Z,76.41
2018-07-23T03:13:27.687Z,74.74
2018-07-23T03:15:53.709Z,75.51
2018-07-23T03:18:19.746Z,75.13
2018-07-23T03:20:45.798Z,75.25
2018-07-23T03:23:11.845Z,75.89
2018-07-23T03:25:37.874Z,75.63
2018-07-23T03:28:03.892Z,75.19
2018-07-23T03:30:29.969Z,76.92
2018-07-23T03:32:56.072Z,77.82
2018-07-23T03:35:22.098Z,76.68
2018-07-23T03:37:48.096Z,77.20
2018-07-23T03:40:14.381Z,75.73
2018-07-23T03:42:40.391Z,75.80
2018-07-23T03:45:06.437Z,76.42
2018-07-23T03:47:32.455Z,77.02
2018-07-23T03:49:58.500Z,76.70
2018-07-23T03:52:24.537Z,78.06
2018-07-23T03:54:50.570Z,78.57
2018-07-23T03:57:16.578Z,78.91
2018-07-23T03:59:42.595Z,79.44
2018-07-23T04:02:08.611Z,78.10
2018-07-23T04:04:34.630Z,77.29
2018-07-23T04:07:00.689Z,76.57
2018-07-23T04:09:26.725Z,76.73
2018-07-23T04:11:52.740Z,77.42
2018-07-23T04:14:18.739Z,77.74
2018-07-23T04:16:44.758Z,78.25
2018-07-23T04:19:10.790Z,79.18
2018-07-23T04:21:36.846Z,79.47
2018-07-23T04:24:02.883Z,78.22
2018-07-23T04:26:28.955Z,78.12
2018-07-23T04:28:54.988Z,78.46
2018-07-23T04:31:21.010Z,79.70
2018-07-23T04:33:47.014Z,79.36
2018-07-23T04:36:13.031Z,78.86
2018-07-23T04:38:39.024Z,78.58
2018-07-23T04:41:05.088Z,80.36
2018-07-23T04:43:31.101Z,80.26
2018-07-23T04:45:57.115Z,79.59
2018-07-23T04:48:23.120Z,78.56
2018-07-23T04:50:49.138Z,81.11
2018-07-23T04:53:15.188Z,79.76
2018-07-23T04:55:46.286Z,80.17
2018-07-23T04:58:12.318Z,79.14
2018-07-23T05:00:38.357Z,80.56
2018-07-23T05:03:04.392Z,80.54
2018-07-23T05:05:30.419Z,81.44
2018-07-23T05:07:56.411Z,81.13
2018-07-23T05:10:22.418Z,80.54
2018-07-23T05:12:48.459Z,80.76
2018-07-23T05:15:14.821Z,80.73
2018-07-23T05:17:40.858Z,79.93
2018-07-23T05:20:06.883Z,77.74
2018-07-23T05:22:32.908Z,79.44
2018-07-23T05:24:58.934Z,78.41
2018-07-23T05:27:24.971Z,76.42
2018-07-23T05:29:51.358Z,75.55
2018-07-23T05:32:17.679Z,74.07
2018-07-23T05:34:43.676Z,74.40
2018-07-23T05:37:09.701Z,74.14
2018-07-23T05:39:35.741Z,73.58
2018-07-23T05:42:01.811Z,72.81
2018-07-23T05:44:27.842Z,73.55
2018-07-23T05:46:53.880Z,72.21
2018-07-23T05:49:19.900Z,73.26
2018-07-23T05:51:45.924Z,74.20
2018-07-23T05:54:11.961Z,72.50
2018-07-23T05:56:38.065Z,71.36
2018-07-23T05:59:04.225Z,72.38
2018-07-23T06:01:30.367Z,71.63
2018-07-23T06:03:56.607Z,71.53
2018-07-23T06:06:23.073Z,71.06
2018-07-23T06:08:49.512Z,70.67
2018-07-23T06:11:15.569Z,70.54
2018-07-23T06:13:41.633Z,70.21
2018-07-23T06:16:07.692Z,71.04
2018-07-23T06:18:33.787Z,69.95
2018-07-23T06:20:59.823Z,69.22
2018-07-23T06:23:26.035Z,67.33
2018-07-23T06:25:52.493Z,68.12
2018-07-23T06:28:18.974Z,67.15
2018-07-23T06:30:45.232Z,66.98
2018-07-23T06:33:11.334Z,69.11
2018-07-23T06:35:37.381Z,66.50
2018-07-23T06:38:04.073Z,67.15
2018-07-23T06:40:30.188Z,65.56
2018-07-23T06:42:56.268Z,65.63
2018-07-23T06:45:22.335Z,65.61
2018-07-23T06:47:48.436Z,64.72
2018-07-23T06:50:14.455Z,63.60
2018-07-23T06:52:40.491Z,63.18
2018-07-23T06:55:06.854Z,63.15
2018-07-23T06:57:33.184Z,61.95
2018-07-23T06:59:59.225Z,63.01
2018-07-23T07:02:25.266Z,63.44
2018-07-23T07:04:51.280Z,61.97
2018-07-23T07:07:17.318Z,59.90
2018-07-23T07:09:43.337Z,60.72
2018-07-23T07:12:09.366Z,56.70
2018-07-23T07:14:35.379Z,56.66
2018-07-23T07:17:01.374Z,56.13
2018-07-23T07:19:27.387Z,55.82
2018-07-23T07:21:53.423Z,54.51
2018-07-23T07:24:19.466Z,55.12
2018-07-23T07:26:45.487Z,54.53
2018-07-23T07:29:11.528Z,54.98
2018-07-23T07:31:37.540Z,54.06
2018-07-23T07:34:03.571Z,54.85
2018-07-23T07:36:29.612Z,54.13
2018-07-23T07:38:55.633Z,53.55
2018-07-23T07:41:21.669Z,53.34
2018-07-23T07:43:47.669Z,54.01
2018-07-23T07:46:13.801Z,53.91
2018-07-23T07:48:39.823Z,53.32
2018-07-23T07:51:05.849Z,52.26
2018-07-23T07:53:31.947Z,53.35
2018-07-23T07:55:58.232Z,52.02
2018-07-23T07:58:24.557Z,52.87
2018-07-23T08:00:50.615Z,53.29
2018-07-23T08:03:16.932Z,52.80
2018-07-23T08:05:42.968Z,53.26
2018-07-23T08:08:08.996Z,52.54
2018-07-23T08:10:35.060Z,53.15
2018-07-23T08:13:01.089Z,53.09
2018-07-23T08:15:27.106Z,52.78
2018-07-23T08:17:53.175Z,53.70
2018-07-23T08:20:19.195Z,53.77
2018-07-23T08:22:45.259Z,53.97
2018-07-23T08:25:11.342Z,53.36
2018-07-23T08:27:37.378Z,52.12
2018-07-23T08:30:03.441Z,52.02
2018-07-23T08:32:29.759Z,51.76
2018-07-23T08:34:55.954Z,50.89
2018-07-23T08:37:22.093Z,51.23
2018-07-23T08:39:48.451Z,51.28
2018-07-23T08:42:14.574Z,49.73
2018-07-23T08:44:40.692Z,50.13
2018-07-23T08:47:06.843Z,49.67
2018-07-23T08:49:32.914Z,48.87
2018-07-23T08:51:59.082Z,48.48
2018-07-23T08:54:25.178Z,48.80
2018-07-23T08:56:51.220Z,47.99
2018-07-23T08:59:17.344Z,48.54
2018-07-23T09:01:43.976Z,49.16
2018-07-23T09:04:10.113Z,47.85
2018-07-23T09:06:36.291Z,48.57
2018-07-23T09:09:02.533Z,48.22
2018-07-23T09:11:28.859Z,47.90
2018-07-23T09:13:54.934Z,47.97
2018-07-23T09:16:21.729Z,47.70
2018-07-23T09:18:47.799Z,47.68
2018-07-23T09:21:13.893Z,48.02
2018-07-23T09:23:40.062Z,46.79
2018-07-23T09:26:06.290Z,48.16
2018-07-23T09:28:33.394Z,46.60
2018-07-23T09:30:59.672Z,47.08
2018-07-23T09:35:57.614Z,47.64
2018-07-23T09:38:23.941Z,46.28
2018-07-23T09:40:50.017Z,45.52
2018-07-23T09:43:16.503Z,47.03
2018-07-23T09:45:42.599Z,46.25
2018-07-23T09:48:08.756Z,46.22
2018-07-23T09:50:34.921Z,45.73
2018-07-23T09:53:00.978Z,46.64
2018-07-23T09:55:27.088Z,45.92
2018-07-23T09:57:53.244Z,44.76
2018-07-23T10:00:20.927Z,44.72
2018-07-23T10:02:47.268Z,44.61
2018-07-23T10:05:13.681Z,44.41
2018-07-23T10:07:39.752Z,44.74
2018-07-23T10:12:37.374Z,43.25
2018-07-23T10:15:03.673Z,44.60
2018-07-23T10:17:30.436Z,44.64
2018-07-23T10:19:56.752Z,44.24
2018-07-23T10:22:23.006Z,43.53
2018-07-23T10:24:49.115Z,43.91
2018-07-23T10:27:15.537Z,43.42
2018-07-23T10:29:41.778Z,42.88
2018-07-23T10:32:08.311Z,43.25
2018-07-23T10:37:06.825Z,44.71
2018-07-23T10:39:32.921Z,42.73
2018-07-23T10:41:59.084Z,43.38
2018-07-23T10:49:33.731Z,41.71
2018-07-23T10:51:59.828Z,42.13
2018-07-23T10:54:26.284Z,41.91
2018-07-23T10:56:52.485Z,41.98
2018-07-23T10:59:22.668Z,41.46
2018-07-23T11:01:48.774Z,42.13
2018-07-23T11:04:14.888Z,40.84
2018-07-23T11:06:41.532Z,41.31
2018-07-23T11:09:07.941Z,40.37
2018-07-23T11:11:34.286Z,41.65
2018-07-23T11:14:00.420Z,40.96
2018-07-23T11:16:26.742Z,40.80
2018-07-23T11:18:52.962Z,39.13
2018-07-23T11:21:19.001Z,38.70
2018-07-23T11:23:45.059Z,40.54
2018-07-23T11:26:11.110Z,38.63
2018-07-23T11:28:37.440Z,39.19
2018-07-23T11:31:03.541Z,38.81
2018-07-23T11:33:29.602Z,39.30
2018-07-23T11:36:04.863Z,39.02
2018-07-23T11:38:31.179Z,38.72
2018-07-23T11:40:57.566Z,39.34
2018-07-23T11:44:43.934Z,39.59
2018-07-23T11:47:10.809Z,36.55
2018-07-23T11:49:36.913Z,37.03
2018-07-23T11:52:03.110Z,37.14
2018-07-23T11:54:29.451Z,36.90
2018-07-23T11:56:58.974Z,37.33
2018-07-23T11:59:25.172Z,36.22
2018-07-23T12:01:51.686Z,35.71
2018-07-23T12:04:17.836Z,36.22
2018-07-23T12:06:44.052Z,36.26
2018-07-23T12:09:11.934Z,35.76
2018-07-23T12:11:38.247Z,34.92
2018-07-23T12:14:04.399Z,34.81
2018-07-23T12:16:30.515Z,33.65
2018-07-23T12:18:56.584Z,32.41
2018-07-23T12:21:22.684Z,29.31
2018-07-23T12:23:48.778Z,27.08
2018-07-23T12:26:15.144Z,25.52
2018-07-23T12:28:41.321Z,24.95
2018-07-23T12:31:07.422Z,24.23
2018-07-23T12:33:33.441Z,24.80
2018-07-23T12:35:59.650Z,25.86
2018-07-23T12:38:25.763Z,27.14
2018-07-23T12:40:51.981Z,26.40
2018-07-23T12:43:18.339Z,25.38
2018-07-23T12:45:44.428Z,25.42
2018-07-23T12:48:10.807Z,23.34
2018-07-23T12:50:37.286Z,24.09
2018-07-23T12:53:03.328Z,23.19
2018-07-23T12:55:29.408Z,25.26
2018-07-23T12:57:55.471Z,25.96
2018-07-23T13:02:58.885Z,22.18
2018-07-23T13:05:25.020Z,20.88
2018-07-23T13:07:51.161Z,19.23
2018-07-23T13:10:17.238Z,19.08
2018-07-23T13:12:43.240Z,17.77
2018-07-23T13:15:09.856Z,16.75
2018-07-23T13:17:35.981Z,15.25
2018-07-23T13:20:02.076Z,15.87
2018-07-23T13:22:28.100Z,15.34
2018-07-23T13:24:54.444Z,14.61
2018-07-23T13:27:20.525Z,14.88
2018-07-23T13:29:46.563Z,13.86
2018-07-23T13:32:12.764Z,13.76
2018-07-23T13:34:38.782Z,14.27
2018-07-23T13:37:04.809Z,16.25
2018-07-23T13:39:31.002Z,16.56
2018-07-23T13:41:57.015Z,17.14
2018-07-23T13:44:23.099Z,16.10
2018-07-23T13:46:49.458Z,14.94
2018-07-23T13:49:15.671Z,15.26
2018-07-23T13:51:41.728Z,14.83
2018-07-23T13:54:07.800Z,14.64
2018-07-23T13:56:33.990Z,15.13
2018-07-23T13:59:00.272Z,14.18
2018-07-23T14:01:26.636Z,13.77
2018-07-23T14:03:52.646Z,13.39
2018-07-23T14:06:18.979Z,12.97
2018-07-23T14:08:45.078Z,13.38
2018-07-23T14:11:11.259Z,12.93
2018-07-23T14:13:37.301Z,13.00
2018-07-23T14:16:03.455Z,12.43
2018-07-23T14:18:29.491Z,13.05
2018-07-23T14:20:55.582Z,13.81
2018-07-23T14:23:21.660Z,11.94
2018-07-23T14:25:47.725Z,11.79
2018-07-23T14:28:13.753Z,10.89
2018-07-23T14:30:39.968Z,10.47
2018-07-23T14:33:06.387Z,10.97
2018-07-23T14:38:06.478Z,11.98
2018-07-23T14:40:32.926Z,10.96
2018-07-23T14:42:59.036Z,11.71
2018-07-23T14:45:25.251Z,11.39
2018-07-23T14:47:51.494Z,11.52
2018-07-23T14:50:18.740Z,11.92
2018-07-23T14:52:45.285Z,12.22
2018-07-23T14:55:11.586Z,12.04
2018-07-23T14:57:52.952Z,12.12
2018-07-23T15:01:09.871Z,13.73
2018-07-23T15:03:36.131Z,15.12
2018-07-23T15:06:02.169Z,17.08
2018-07-23T15:08:28.583Z,17.46
2018-07-23T15:10:55.718Z,17.14
2018-07-23T15:13:22.756Z,15.90
2018-07-23T15:15:48.792Z,13.97
2018-07-23T15:18:15.120Z,13.60
2018-07-23T15:20:41.128Z,13.39
2018-07-23T15:23:07.283Z,12.24
2018-07-23T15:25:33.577Z,12.10
2018-07-23T15:27:59.696Z,12.34
2018-07-23T15:30:26.098Z,11.93
2018-07-23T15:32:52.603Z,10.91
2018-07-23T15:35:18.620Z,12.19
2018-07-23T15:37:44.667Z,12.47
2018-07-23T15:40:10.946Z,14.27
2018-07-23T15:42:37.416Z,16.15
2018-07-23T15:45:03.594Z,17.88
2018-07-23T15:47:29.630Z,18.67
2018-07-23T15:49:56.093Z,19.29
2018-07-23T15:52:22.481Z,20.33
2018-07-23T15:54:48.526Z,19.14
2018-07-23T15:57:16.684Z,19.00
2018-07-23T15:59:42.793Z,17.20
2018-07-23T16:02:08.908Z,15.11
2018-07-23T16:04:35.280Z,14.04
2018-07-23T16:07:01.436Z,13.00
2018-07-23T16:09:27.474Z,12.46
2018-07-23T16:11:53.748Z,12.26
2018-07-23T16:14:20.090Z,13.01
2018-07-23T16:16:46.431Z,13.20
2018-07-23T16:19:12.500Z,12.61
2018-07-23T16:21:38.511Z,13.35
2018-07-23T16:24:04.531Z,14.79
2018-07-23T16:26:30.585Z,16.21
2018-07-23T16:28:56.617Z,17.98
2018-07-23T16:31:22.708Z,18.89
2018-07-23T16:33:48.736Z,21.58
2018-07-23T16:36:15.126Z,22.03
2018-07-23T16:38:41.448Z,24.05
2018-07-23T16:41:07.489Z,22.46
2018-07-23T16:43:33.948Z,24.70
2018-07-23T16:48:32.741Z,20.68
2018-07-23T16:50:59.034Z,19.79
2018-07-23T16:53:25.408Z,17.81
2018-07-23T16:55:52.510Z,16.56
2018-07-23T16:58:18.527Z,15.87
2018-07-23T17:00:44.903Z,15.92
2018-07-23T17:03:10.947Z,15.47
2018-07-23T17:05:37.276Z,15.30
2018-07-23T17:08:03.391Z,15.06
2018-07-23T17:10:29.781Z,15.20
2018-07-23T17:12:55.932Z,15.71
2018-07-23T17:15:22.250Z,16.98
2018-07-23T17:17:48.388Z,17.11
2018-07-23T17:20:14.431Z,18.89
2018-07-23T17:22:40.459Z,21.08
2018-07-23T17:25:06.681Z,22.45
2018-07-23T17:27:32.684Z,25.08
2018-07-23T17:29:58.963Z,26.25
2018-07-23T17:32:25.144Z,27.70
2018-07-23T17:34:51.516Z,26.71
2018-07-23T17:37:17.640Z,29.14
2018-07-23T17:39:44.561Z,27.66
2018-07-23T17:42:10.731Z,27.02
2018-07-23T17:44:36.790Z,26.50
2018-07-23T17:47:03.089Z,26.76
2018-07-23T17:49:29.602Z,26.29
2018-07-23T17:51:55.892Z,26.03
2018-07-23T17:54:21.971Z,26.89
2018-07-23T17:56:48.093Z,24.86
2018-07-23T17:59:14.468Z,24.44
2018-07-23T18:01:40.674Z,25.25
2018-07-23T18:04:06.768Z,24.99
2018-07-23T18:06:32.778Z,25.32
2018-07-23T18:08:58.828Z,25.46
2018-07-23T18:11:24.891Z,24.25
2018-07-23T18:13:50.926Z,25.29
2018-07-23T18:16:16.953Z,25.62
2018-07-23T18:18:43.030Z,25.21
2018-07-23T18:21:09.246Z,25.75
2018-07-23T18:23:35.257Z,26.52
2018-07-23T18:26:01.376Z,26.55
2018-07-23T18:28:27.508Z,27.27
2018-07-23T18:30:53.863Z,27.34
2018-07-23T18:33:19.938Z,26.99
2018-07-23T18:35:46.614Z,27.74
2018-07-23T18:38:12.938Z,28.30
2018-07-23T18:40:39.116Z,29.00
2018-07-23T18:43:05.310Z,29.61
2018-07-23T18:45:31.572Z,32.24
2018-07-23T18:47:57.687Z,33.88
2018-07-23T18:50:27.909Z,35.74
2018-07-23T18:52:54.275Z,37.30
2018-07-23T18:58:02.738Z,40.07
2018-07-23T19:00:28.775Z,42.06
2018-07-23T19:02:54.871Z,44.22
2018-07-23T19:05:20.910Z,44.64
2018-07-23T19:07:46.995Z,46.08
2018-07-23T19:10:13.060Z,46.16
2018-07-23T19:12:39.080Z,47.00
2018-07-23T19:15:05.115Z,47.73
2018-07-23T19:17:31.474Z,48.85
2018-07-23T19:19:57.483Z,50.38
2018-07-23T19:22:23.509Z,50.15
2018-07-23T19:24:49.545Z,49.36
2018-07-23T19:27:15.668Z,50.06
2018-07-23T19:29:41.590Z,51.99
2018-07-23T19:32:07.631Z,51.92
2018-07-23T19:34:33.686Z,51.88
2018-07-23T19:36:59.716Z,52.52
2018-07-23T19:39:25.725Z,51.68
2018-07-23T19:41:52.157Z,53.00
2018-07-23T19:44:18.171Z,52.81
2018-07-23T19:46:44.529Z,52.78
2018-07-23T19:49:10.559Z,53.56
2018-07-23T19:51:36.616Z,52.84
2018-07-23T19:54:02.666Z,54.19
2018-07-23T19:56:28.703Z,55.68
2018-07-23T19:58:54.740Z,54.82
2018-07-23T20:01:20.780Z,53.51
2018-07-23T20:03:47.147Z,54.88
2018-07-23T20:06:13.447Z,56.39
2018-07-23T20:08:39.909Z,55.90
2018-07-23T20:11:06.313Z,56.06
2018-07-23T20:13:32.408Z,56.45
2018-07-23T20:15:58.453Z,56.52
2018-07-23T20:18:24.528Z,56.63
2018-07-23T20:20:50.987Z,58.09
2018-07-23T20:23:17.364Z,57.05
2018-07-23T20:25:43.470Z,56.02
2018-07-23T20:28:09.814Z,57.45
2018-07-23T20:30:36.662Z,57.39
2018-07-23T20:33:03.136Z,59.15
2018-07-23T20:35:29.125Z,60.74
2018-07-23T20:37:55.186Z,59.02
2018-07-23T20:40:21.223Z,58.95
2018-07-23T20:42:47.216Z,59.08
2018-07-23T20:45:13.226Z,60.25
2018-07-23T20:47:39.240Z,61.38
2018-07-23T20:50:05.250Z,61.32
2018-07-23T20:52:31.284Z,61.05
2018-07-23T20:54:57.317Z,62.66
2018-07-23T20:57:23.535Z,62.73
2018-07-23T20:59:49.547Z,63.61
2018-07-23T21:02:15.558Z,62.11
2018-07-23T21:04:41.566Z,64.69
2018-07-23T21:07:07.599Z,64.13
2018-07-23T21:09:33.606Z,66.85
2018-07-23T21:11:59.659Z,65.86
2018-07-23T21:14:25.647Z,64.39
2018-07-23T21:16:51.656Z,63.79
2018-07-23T21:19:17.657Z,64.78
2018-07-23T21:21:43.678Z,65.63
2018-07-23T21:24:09.695Z,65.74
2018-07-23T21:26:35.705Z,64.45
2018-07-23T21:29:01.733Z,65.89
2018-07-23T21:31:27.750Z,64.72
2018-07-23T21:33:53.881Z,65.38
2018-07-23T21:36:19.897Z,65.96
2018-07-23T21:38:46.237Z,65.36
2018-07-23T21:41:12.251Z,65.01
2018-07-23T21:43:38.263Z,64.23
2018-07-23T21:46:04.269Z,65.62
2018-07-23T21:48:30.355Z,66.93
2018-07-23T21:50:56.363Z,66.48
2018-07-23T21:53:22.384Z,66.56
2018-07-23T21:55:48.414Z,66.90
2018-07-23T21:58:14.423Z,68.61
2018-07-23T22:00:40.475Z,66.84
2018-07-23T22:03:06.471Z,67.64
2018-07-23T22:05:32.464Z,65.93
2018-07-23T22:07:58.466Z,66.57
2018-07-23T22:10:24.502Z,68.19
2018-07-23T22:12:50.544Z,67.86
2018-07-23T22:15:16.558Z,67.21
2018-07-23T22:17:42.844Z,68.44
2018-07-23T22:20:08.854Z,67.33
2018-07-23T22:22:34.839Z,67.07
2018-07-23T22:25:00.824Z,67.93
2018-07-23T22:27:26.837Z,68.42
2018-07-23T22:29:52.849Z,67.52
2018-07-23T22:32:18.837Z,68.61
2018-07-23T22:34:44.868Z,68.86
2018-07-23T22:37:10.881Z,69.69
2018-07-23T22:39:36.885Z,70.83
2018-07-23T22:42:02.929Z,71.66
2018-07-23T22:44:28.923Z,70.88
2018-07-23T22:46:54.950Z,71.71
2018-07-23T22:49:20.961Z,70.29
2018-07-23T22:51:46.989Z,70.15
2018-07-23T22:54:13.046Z,70.68
2018-07-23T22:56:39.051Z,72.95
2018-07-23T22:59:05.039Z,73.54
2018-07-23T23:01:31.070Z,72.00
2018-07-23T23:04:34.203Z,72.50
2018-07-23T23:07:00.200Z,71.77
2018-07-23T23:09:26.205Z,72.54
2018-07-23T23:11:52.211Z,72.28
2018-07-23T23:14:18.233Z,75.05
2018-07-23T23:16:44.246Z,74.12
2018-07-23T23:19:10.258Z,72.41
2018-07-23T23:21:36.244Z,71.75
2018-07-23T23:24:02.260Z,72.80
2018-07-23T23:26:28.289Z,72.51
2018-07-23T23:28:54.317Z,74.89
2018-07-23T23:31:20.346Z,73.91
2018-07-23T23:33:46.364Z,72.62
2018-07-23T23:36:14.398Z,74.09
2018-07-23T23:38:40.423Z,72.62
2018-07-23T23:41:06.425Z,72.72
2018-07-23T23:43:32.444Z,73.26
2018-07-23T23:45:58.435Z,74.35
2018-07-23T23:48:24.439Z,74.15
2018-07-23T23:50:50.470Z,74.55
2018-07-23T23:53:19.706Z,74.39
2018-07-23T23:55:45.695Z,73.02
2018-07-23T23:58:11.705Z,72.40
